Auxvasse, MO

6:53 AM CST on March 04, 2015 (GMT -0600)
Near Lakeview Lake | Change Station
CLOSE
Current Station
Personal Weather Station
Location: Mexico, MO
Elevation: 817 ft
Nearby Weather Stations

Elev 817 ft 39.16 °N, 91.89 °W | Updated 6 seconds ago

Overcast
Overcast
18.6 °F
Feels Like 19 °F
N
3.0
Wind Variable Wind from NNW
Gusts 16.0 mph

Today
High -- | Low -- °F
--% Chance of Precip.
Yesterday
High -- | Low -- °F
Precip. -- in
6:36 AM 6:03 PM
Waxing Gibbous, 99% visible
Pressure 30.15 in
Visibility 0.8 miles
Clouds Overcast 2700 ft
Windchill 19 °F
Dew Point 10 °F
Humidity 68%
Rainfall 0.00 in
Snow Depth Not available.
UV 0 out of 12
Pollen 1.50 out of 12
Air Quality Not available.
Flu Activity Not available.
SPECI KCOU 041247Z AUTO 36017KT 3/4SM -SN BR OVC027 M07/M09 A3015 RMK AO2 PK WND 36028/1204 UPB11E15SNB15 P0000 T10671089

More Conditions Fewer Conditions

Pressure 30.15 in
Visibility 0.8 miles
Clouds Overcast 2700 ft
Windchill 19 °F
Dew Point 10 °F
Humidity 68%
Rainfall 0.00 in
Snow Depth Not available.
UV 0 out of 12
Pollen 1.50 out of 12
Air Quality Not available.
Flu Activity Not available.
SPECI KCOU 041247Z AUTO 36017KT 3/4SM -SN BR OVC027 M07/M09 A3015 RMK AO2 PK WND 36028/1204 UPB11E15SNB15 P0000 T10671089

More Conditions Fewer Conditions

10-Day Weather Forecast

Almanac

Astronomy

Mar. 04, 2015 Rise Set
Actual Time
Civil Twilight
Nautical Twilight
Astronomical Twilight
Moon
Length of Visible Light
Length of Day
Tomorrow will be .
, % of the Moon is Illuminated

Today's Extremes

State Highs State Lows

Community

WunderPhotos

Upload Photos

1,802,441 photos uploaded!

WunderBlogs® & News

Nearby

Air Quality

  Air Quality AQ Index Pollutant
Not available.

Snow Depth

Station Depth Elevation

Earthquake Activity

City Distance Mag. Time & Date
Minimum magnitude displayed is 2.5.

Coastal Water Temperatures

Place Temperature

Nearby Weather Stations